createdAt,value
2023-05-10T00:02:14.476Z,6.55
2023-05-10T00:04:42.892Z,6.51
2023-05-10T00:07:11.779Z,6.48
2023-05-10T00:09:40.370Z,6.46
2023-05-10T00:12:08.755Z,6.44
2023-05-10T00:14:37.124Z,6.42
2023-05-10T00:17:05.781Z,6.41
2023-05-10T00:20:14.145Z,6.40
2023-05-10T00:23:22.449Z,6.38
2023-05-10T00:26:30.475Z,6.38
2023-05-10T00:29:38.689Z,6.38
2023-05-10T00:32:46.846Z,6.38
2023-05-10T00:35:15.811Z,6.36
2023-05-10T00:37:44.674Z,6.34
2023-05-10T00:40:13.748Z,6.35
2023-05-10T00:42:42.965Z,6.34
2023-05-10T00:45:14.917Z,6.34
2023-05-10T00:47:43.930Z,6.35
2023-05-10T00:50:12.450Z,6.34
2023-05-10T00:52:40.995Z,6.33
2023-05-10T00:55:10.894Z,6.33
2023-05-10T00:57:39.652Z,6.35
2023-05-10T01:00:08.890Z,6.39
2023-05-10T01:02:37.924Z,6.42
2023-05-10T01:05:07.352Z,6.46
2023-05-10T01:07:35.686Z,6.50
2023-05-10T01:10:05.988Z,6.54
2023-05-10T01:12:36.647Z,6.58
2023-05-10T01:15:06.506Z,6.63
2023-05-10T01:17:36.145Z,6.67
2023-05-10T01:20:04.835Z,6.72
2023-05-10T01:22:42.513Z,6.77
2023-05-10T01:25:10.911Z,6.83
2023-05-10T01:27:58.143Z,6.90
2023-05-10T01:30:29.996Z,6.95
2023-05-10T01:33:09.814Z,6.99
2023-05-10T01:35:58.087Z,7.03
2023-05-10T01:39:06.101Z,7.07
2023-05-10T01:41:54.495Z,7.13
2023-05-10T01:48:47.428Z,7.27
2023-05-10T01:51:55.641Z,7.33
2023-05-10T01:55:04.016Z,7.37
2023-05-10T02:01:47.406Z,7.48
2023-05-10T02:04:55.552Z,7.54
2023-05-10T02:08:03.669Z,7.59
2023-05-10T02:11:11.816Z,7.63
2023-05-10T02:14:19.960Z,7.64
2023-05-10T02:17:28.128Z,7.66
2023-05-10T02:20:36.260Z,7.67
2023-05-10T02:23:44.333Z,7.69
2023-05-10T02:26:52.714Z,7.70
2023-05-10T02:30:01.037Z,7.73
2023-05-10T02:33:10.753Z,7.75
2023-05-10T02:36:25.041Z,7.75
2023-05-10T02:38:54.500Z,7.77
2023-05-10T02:42:04.397Z,7.78
2023-05-10T02:45:12.528Z,7.81
2023-05-10T02:48:26.671Z,7.84
2023-05-10T02:51:34.747Z,7.84
2023-05-10T02:54:43.188Z,7.84
2023-05-10T02:57:51.231Z,7.83
2023-05-10T03:00:59.581Z,7.84
2023-05-10T03:04:07.574Z,7.87
2023-05-10T03:21:49.025Z,7.94
2023-05-10T03:24:18.222Z,7.96
2023-05-10T03:26:47.422Z,7.98
2023-05-10T03:29:20.357Z,7.99
2023-05-10T03:31:48.856Z,8.01
2023-05-10T03:34:17.517Z,8.04
2023-05-10T03:36:46.911Z,8.05
2023-05-10T03:39:55.194Z,8.06
2023-05-10T03:43:03.814Z,8.09
2023-05-10T03:46:12.084Z,8.12
2023-05-10T03:48:40.658Z,8.14
2023-05-10T03:54:41.475Z,8.18
2023-05-10T03:57:10.736Z,8.18
2023-05-10T04:00:19.377Z,8.20
2023-05-10T04:03:29.485Z,8.24
2023-05-10T04:06:02.332Z,8.28
2023-05-10T04:08:30.999Z,8.29
2023-05-10T04:11:08.934Z,8.31
2023-05-10T04:13:37.649Z,8.35
2023-05-10T04:16:06.228Z,8.40
2023-05-10T04:18:34.553Z,8.45
2023-05-10T04:21:42.802Z,8.50
2023-05-10T04:24:11.173Z,8.57
2023-05-10T04:26:40.305Z,8.65
2023-05-10T04:29:08.764Z,8.72
2023-05-10T04:31:37.580Z,8.77
2023-05-10T04:34:06.801Z,8.84
2023-05-10T04:36:36.974Z,8.91
2023-05-10T04:39:05.349Z,8.96
2023-05-10T04:41:34.047Z,9.02
2023-05-10T04:44:02.410Z,9.10
2023-05-10T04:46:30.659Z,9.19
2023-05-10T04:48:59.318Z,9.24
2023-05-10T04:51:28.066Z,9.31
2023-05-10T04:54:05.159Z,9.38
2023-05-10T04:56:35.097Z,9.45
2023-05-10T04:59:03.925Z,9.51
2023-05-10T05:01:32.400Z,9.58
2023-05-10T05:04:00.890Z,9.67
2023-05-10T05:06:29.478Z,9.78
2023-05-10T05:08:57.678Z,9.90
2023-05-10T05:11:26.910Z,10.00
2023-05-10T05:13:55.470Z,10.07
2023-05-10T05:16:24.029Z,10.13
2023-05-10T05:18:52.844Z,10.18
2023-05-10T05:21:21.407Z,10.23
2023-05-10T05:23:49.502Z,10.27
2023-05-10T05:26:38.100Z,10.32
2023-05-10T05:29:26.145Z,10.45
2023-05-10T05:32:14.336Z,10.64
2023-05-10T05:34:42.617Z,10.81
2023-05-10T05:37:13.771Z,11.00
2023-05-10T05:39:42.549Z,11.15
2023-05-10T05:42:11.538Z,11.25
2023-05-10T05:44:39.773Z,11.38
2023-05-10T05:47:08.507Z,11.54
2023-05-10T05:49:36.781Z,11.72
2023-05-10T05:52:05.460Z,11.96
2023-05-10T05:54:33.849Z,12.17
2023-05-10T05:57:02.142Z,12.35
2023-05-10T05:59:30.709Z,12.50
2023-05-10T06:01:59.103Z,12.60
2023-05-10T06:04:27.360Z,12.70
2023-05-10T06:06:55.686Z,12.84
2023-05-10T06:09:25.673Z,13.02
2023-05-10T06:11:54.151Z,13.30
2023-05-10T06:14:22.531Z,13.62
2023-05-10T06:16:51.250Z,13.88
2023-05-10T06:19:19.612Z,14.14
2023-05-10T06:21:47.874Z,14.48
2023-05-10T06:24:16.153Z,14.70
2023-05-10T06:26:44.739Z,14.74
2023-05-10T06:29:13.327Z,14.78
2023-05-10T06:31:42.241Z,14.96
2023-05-10T06:34:10.587Z,15.18
2023-05-10T06:36:38.742Z,15.37
2023-05-10T06:39:07.045Z,15.56
2023-05-10T06:41:35.532Z,15.85
2023-05-10T06:44:04.929Z,16.16
2023-05-10T06:46:33.539Z,16.42
2023-05-10T06:49:01.803Z,16.60
2023-05-10T06:51:30.173Z,16.69
2023-05-10T06:53:58.861Z,16.70
2023-05-10T06:56:27.280Z,16.90
2023-05-10T06:58:55.633Z,17.00
2023-05-10T07:01:24.404Z,17.06
2023-05-10T07:03:53.302Z,17.16
2023-05-10T07:06:32.375Z,17.26
2023-05-10T07:09:02.568Z,17.46
2023-05-10T07:11:30.937Z,17.55
2023-05-10T07:13:59.317Z,17.54
2023-05-10T07:16:28.033Z,17.48
2023-05-10T07:18:56.583Z,17.26
2023-05-10T07:21:29.973Z,17.32
2023-05-10T07:23:58.882Z,17.47
2023-05-10T07:26:27.153Z,17.60
2023-05-10T07:28:55.841Z,17.74
2023-05-10T07:31:24.123Z,17.95
2023-05-10T07:33:52.500Z,18.06
2023-05-10T07:36:21.087Z,18.14
2023-05-10T07:38:50.700Z,18.09
2023-05-10T07:41:18.827Z,18.09
2023-05-10T07:43:47.131Z,17.96
2023-05-10T07:46:15.362Z,17.81
2023-05-10T07:48:43.913Z,17.77
2023-05-10T07:51:12.627Z,17.96
2023-05-10T07:53:41.076Z,18.11
2023-05-10T07:56:22.801Z,18.16
2023-05-10T07:58:51.479Z,18.08
2023-05-10T08:01:19.856Z,18.07
2023-05-10T08:03:48.760Z,18.11
2023-05-10T08:06:18.252Z,18.35
2023-05-10T08:08:51.787Z,18.64
2023-05-10T08:11:20.429Z,19.00
2023-05-10T08:13:49.582Z,19.39
2023-05-10T08:16:18.476Z,19.70
2023-05-10T08:18:48.202Z,19.88
2023-05-10T08:21:16.919Z,19.93
2023-05-10T08:23:45.499Z,20.11
2023-05-10T08:26:14.083Z,20.18
2023-05-10T08:28:42.257Z,20.30
2023-05-10T08:31:10.651Z,20.37
2023-05-10T08:33:39.595Z,20.47
2023-05-10T08:36:08.225Z,20.68
2023-05-10T08:38:36.397Z,20.79
2023-05-10T08:41:05.908Z,20.72
2023-05-10T08:43:36.992Z,20.81
2023-05-10T08:46:06.646Z,20.80
2023-05-10T08:48:35.703Z,20.69
2023-05-10T08:51:04.952Z,20.56
2023-05-10T08:53:34.655Z,20.40
2023-05-10T08:56:03.577Z,20.55
2023-05-10T08:58:32.138Z,20.72
2023-05-10T09:01:00.949Z,20.90
2023-05-10T09:03:29.108Z,21.02
2023-05-10T09:05:57.941Z,21.20
2023-05-10T09:08:27.296Z,21.44
2023-05-10T09:10:55.992Z,21.53
2023-05-10T09:13:25.299Z,21.61
2023-05-10T09:15:54.280Z,21.78
2023-05-10T09:18:22.743Z,21.72
2023-05-10T09:20:51.354Z,21.53
2023-05-10T09:23:19.793Z,21.52
2023-05-10T09:25:48.207Z,21.55
2023-05-10T09:28:16.694Z,21.71
2023-05-10T09:30:45.147Z,21.97
2023-05-10T09:33:13.360Z,22.04
2023-05-10T09:35:42.245Z,22.14
2023-05-10T09:38:11.750Z,22.29
2023-05-10T09:40:39.940Z,22.39
2023-05-10T09:43:08.792Z,22.57
2023-05-10T09:45:39.021Z,22.67
2023-05-10T09:48:07.831Z,22.70
2023-05-10T09:50:36.422Z,22.59
2023-05-10T09:53:05.139Z,22.64
2023-05-10T09:55:39.980Z,22.50
2023-05-10T09:58:12.011Z,22.48
2023-05-10T10:00:41.933Z,22.76
2023-05-10T10:03:17.696Z,22.86
2023-05-10T10:05:47.352Z,23.04
2023-05-10T10:08:16.332Z,23.19
2023-05-10T10:10:47.912Z,23.26
2023-05-10T10:13:16.733Z,23.45
2023-05-10T10:15:47.121Z,23.75
2023-05-10T10:18:18.927Z,24.12
2023-05-10T10:20:47.599Z,24.36
2023-05-10T10:23:17.531Z,24.65
2023-05-10T10:25:49.182Z,24.84
2023-05-10T10:28:36.805Z,24.61
2023-05-10T10:31:17.228Z,24.14
2023-05-10T10:33:55.996Z,23.84
2023-05-10T10:36:24.473Z,23.57
2023-05-10T10:38:53.063Z,23.22
2023-05-10T10:41:45.108Z,22.90
2023-05-10T10:44:26.387Z,22.65
2023-05-10T10:47:09.715Z,22.40
2023-05-10T10:49:58.470Z,22.33
2023-05-10T10:52:33.888Z,22.29
2023-05-10T10:55:06.589Z,22.10
2023-05-10T10:57:44.398Z,21.97
2023-05-10T11:00:20.756Z,21.89
2023-05-10T11:02:50.501Z,21.95
2023-05-10T11:05:34.850Z,22.34
2023-05-10T11:08:20.465Z,22.75
2023-05-10T11:11:08.617Z,22.81
2023-05-10T11:13:49.961Z,22.76
2023-05-10T11:16:21.132Z,22.71
2023-05-10T11:18:59.077Z,22.49
2023-05-10T11:21:27.672Z,22.22
2023-05-10T11:23:57.889Z,21.98
2023-05-10T11:26:27.289Z,21.75
2023-05-10T11:28:59.983Z,21.56
2023-05-10T11:31:29.174Z,21.38
2023-05-10T11:33:58.486Z,21.17
2023-05-10T11:36:30.759Z,20.95
2023-05-10T11:38:59.342Z,20.70
2023-05-10T11:41:29.380Z,20.56
2023-05-10T11:43:58.355Z,20.35
2023-05-10T11:46:28.229Z,20.11
2023-05-10T11:49:05.758Z,19.93
2023-05-10T11:51:36.309Z,19.78
2023-05-10T11:54:12.009Z,19.72
2023-05-10T11:56:41.348Z,19.67
2023-05-10T11:59:09.604Z,19.68
2023-05-10T12:01:38.269Z,19.64
2023-05-10T12:04:07.188Z,19.54
2023-05-10T12:06:41.753Z,19.46
2023-05-10T12:09:10.465Z,19.35
2023-05-10T12:11:43.495Z,19.25
2023-05-10T12:14:13.015Z,19.06
2023-05-10T12:16:41.411Z,19.15
2023-05-10T12:19:10.177Z,19.32
2023-05-10T12:21:40.120Z,19.41
2023-05-10T12:24:08.782Z,19.53
2023-05-10T12:26:57.646Z,19.72
2023-05-10T12:29:45.997Z,19.93
2023-05-10T12:32:34.565Z,20.02
2023-05-10T12:35:04.738Z,20.09
2023-05-10T12:37:36.858Z,20.16
2023-05-10T12:40:06.677Z,20.30
2023-05-10T12:42:35.959Z,20.40
2023-05-10T12:45:04.949Z,20.47
2023-05-10T12:47:33.877Z,20.51
2023-05-10T12:50:02.848Z,20.53
2023-05-10T12:52:32.857Z,20.61
2023-05-10T12:55:01.968Z,20.63
2023-05-10T12:57:30.541Z,20.66
2023-05-10T12:59:59.129Z,20.69
2023-05-10T13:02:27.608Z,20.53
2023-05-10T13:04:56.662Z,20.23
2023-05-10T13:07:25.291Z,20.12
2023-05-10T13:09:53.570Z,20.02
2023-05-10T13:12:21.945Z,20.07
2023-05-10T13:14:50.326Z,20.23
2023-05-10T13:17:19.070Z,20.66
2023-05-10T13:19:47.412Z,21.26
2023-05-10T13:22:18.714Z,21.87
2023-05-10T13:24:52.144Z,22.44
2023-05-10T13:27:20.520Z,22.77
2023-05-10T13:29:49.261Z,22.70
2023-05-10T13:32:18.113Z,22.75
2023-05-10T13:34:46.373Z,23.03
2023-05-10T13:37:14.855Z,23.28
2023-05-10T13:39:43.545Z,23.39
2023-05-10T13:46:24.444Z,23.87
2023-05-10T13:48:52.941Z,23.99
2023-05-10T13:52:01.031Z,24.18
2023-05-10T13:55:09.267Z,24.39
2023-05-10T13:58:17.504Z,24.57
2023-05-10T14:01:22.763Z,24.66
2023-05-10T14:03:51.401Z,24.80
2023-05-10T14:06:59.878Z,24.93
2023-05-10T14:10:08.204Z,24.82
2023-05-10T14:13:21.996Z,24.54
2023-05-10T14:16:30.303Z,24.43
2023-05-10T14:19:39.049Z,24.39
2023-05-10T14:22:47.169Z,24.42
2023-05-10T14:29:27.987Z,24.60
2023-05-10T14:32:36.357Z,24.82
2023-05-10T14:35:05.259Z,24.89
2023-05-10T14:37:33.839Z,24.85
2023-05-10T14:40:02.328Z,24.83
2023-05-10T14:42:30.916Z,24.85
2023-05-10T14:44:59.530Z,24.85
2023-05-10T14:47:27.717Z,24.91
2023-05-10T14:49:56.055Z,24.95
2023-05-10T14:52:24.836Z,25.01
2023-05-10T14:54:53.384Z,25.15
2023-05-10T14:57:21.709Z,25.24
2023-05-10T15:00:10.254Z,25.16
2023-05-10T15:03:03.929Z,25.02
2023-05-10T15:06:00.270Z,25.09
2023-05-10T15:08:49.070Z,25.09
2023-05-10T15:11:37.378Z,25.03
2023-05-10T15:14:25.717Z,25.04
2023-05-10T15:17:13.863Z,25.27
2023-05-10T15:20:04.304Z,25.41
2023-05-10T15:22:52.874Z,25.54
2023-05-10T15:25:41.424Z,25.75
2023-05-10T15:28:29.641Z,26.04
2023-05-10T15:31:18.196Z,25.66
2023-05-10T15:33:46.551Z,24.66
2023-05-10T15:36:14.984Z,23.86
2023-05-10T15:38:43.103Z,23.43
2023-05-10T15:41:11.581Z,22.71
2023-05-10T15:43:39.974Z,22.05
2023-05-10T15:46:08.718Z,21.52
2023-05-10T15:48:37.240Z,20.96
2023-05-10T15:51:05.715Z,20.67
2023-05-10T15:53:34.245Z,20.35
2023-05-10T15:56:02.686Z,20.04
2023-05-10T15:58:31.163Z,20.06
2023-05-10T16:00:59.732Z,20.25
2023-05-10T16:03:28.520Z,20.46
2023-05-10T16:05:56.821Z,20.44
2023-05-10T16:08:25.551Z,20.32
2023-05-10T16:10:54.303Z,20.11
2023-05-10T16:13:22.780Z,19.97
2023-05-10T16:15:51.162Z,19.94
2023-05-10T16:18:19.956Z,20.08
2023-05-10T16:20:48.240Z,20.17
2023-05-10T16:23:16.513Z,20.10
2023-05-10T16:25:45.399Z,19.97
2023-05-10T16:28:13.578Z,19.98
2023-05-10T16:30:42.271Z,19.88
2023-05-10T16:33:10.987Z,19.58
2023-05-10T16:35:59.607Z,19.11
2023-05-10T16:38:48.293Z,18.79
2023-05-10T16:41:36.848Z,18.65
2023-05-10T16:44:23.574Z,18.57
2023-05-10T16:47:39.434Z,18.47
2023-05-10T16:50:28.018Z,18.38
2023-05-10T16:53:16.522Z,18.22
2023-05-10T16:56:04.873Z,18.05
2023-05-10T16:58:34.741Z,17.78
2023-05-10T17:01:02.989Z,17.54
2023-05-10T17:03:31.432Z,17.29
2023-05-10T17:06:36.894Z,16.96
2023-05-10T17:09:06.096Z,16.53
2023-05-10T17:11:34.605Z,16.21
2023-05-10T17:14:03.053Z,15.88
2023-05-10T17:16:31.704Z,15.54
2023-05-10T17:19:00.240Z,15.24
2023-05-10T17:22:08.169Z,14.97
2023-05-10T17:25:16.557Z,14.60
2023-05-10T17:28:25.079Z,14.27
2023-05-10T17:31:36.203Z,13.96
2023-05-10T17:34:05.756Z,13.68
2023-05-10T17:36:34.554Z,13.49
2023-05-10T17:39:02.729Z,13.29
2023-05-10T17:41:31.310Z,13.10
2023-05-10T17:43:59.879Z,12.93
2023-05-10T17:46:28.480Z,12.77
2023-05-10T17:48:57.067Z,12.62
2023-05-10T17:51:25.555Z,12.47
2023-05-10T17:53:53.930Z,12.31
2023-05-10T17:56:25.885Z,12.16
2023-05-10T17:58:54.589Z,12.00
2023-05-10T18:01:22.968Z,11.88
2023-05-10T18:03:52.364Z,11.77
2023-05-10T18:06:20.851Z,11.65
2023-05-10T18:09:28.957Z,11.57
2023-05-10T18:15:25.928Z,11.37
2023-05-10T18:18:36.063Z,11.31
2023-05-10T18:21:44.335Z,11.22
2023-05-10T18:24:54.603Z,11.11
2023-05-10T18:28:07.913Z,11.01
2023-05-10T18:30:36.209Z,10.90
2023-05-10T18:33:05.110Z,10.82
2023-05-10T18:35:35.838Z,10.74
2023-05-10T18:38:04.283Z,10.69
2023-05-10T18:41:12.596Z,10.63
2023-05-10T18:43:42.924Z,10.58
2023-05-10T18:46:11.135Z,10.53
2023-05-10T18:48:39.744Z,10.49
2023-05-10T18:51:08.106Z,10.46
2023-05-10T18:53:36.742Z,10.41
2023-05-10T18:56:05.235Z,10.38
2023-05-10T18:58:35.852Z,10.35
2023-05-10T19:01:04.348Z,10.29
2023-05-10T19:03:32.739Z,10.24
2023-05-10T19:06:01.025Z,10.18
2023-05-10T19:08:29.897Z,10.12
2023-05-10T19:10:58.330Z,10.08
2023-05-10T19:13:28.505Z,10.03
2023-05-10T19:16:05.503Z,10.00
2023-05-10T19:18:34.259Z,9.97
2023-05-10T19:21:04.796Z,9.95
2023-05-10T19:23:33.798Z,9.93
2023-05-10T19:26:02.583Z,9.90
2023-05-10T19:28:31.683Z,9.89
2023-05-10T19:31:00.512Z,9.89
2023-05-10T19:33:29.254Z,9.88
2023-05-10T19:35:57.438Z,9.88
2023-05-10T19:38:26.033Z,9.86
2023-05-10T19:41:00.193Z,9.82
2023-05-10T19:43:29.574Z,9.79
2023-05-10T19:45:59.447Z,9.74
2023-05-10T19:48:28.241Z,9.71
2023-05-10T19:51:00.590Z,9.65
2023-05-10T19:53:29.671Z,9.59
2023-05-10T19:56:03.221Z,9.54
2023-05-10T19:58:31.897Z,9.50
2023-05-10T20:01:00.443Z,9.45
2023-05-10T20:03:29.326Z,9.39
2023-05-10T20:06:15.905Z,9.35
2023-05-10T20:08:44.156Z,9.29
2023-05-10T20:11:13.362Z,9.24
2023-05-10T20:13:41.632Z,9.20
2023-05-10T20:16:10.044Z,9.16
2023-05-10T20:18:38.712Z,9.13
2023-05-10T20:21:07.187Z,9.09
2023-05-10T20:23:35.459Z,9.05
2023-05-10T20:26:03.957Z,9.03
2023-05-10T20:28:32.232Z,9.01
2023-05-10T20:31:02.193Z,8.98
2023-05-10T20:33:31.020Z,8.95
2023-05-10T20:35:59.505Z,8.94
2023-05-10T20:38:27.796Z,8.90
2023-05-10T20:41:15.993Z,8.86
2023-05-10T20:44:05.704Z,8.84
2023-05-10T20:46:54.157Z,8.80
2023-05-10T20:49:44.826Z,8.73
2023-05-10T20:52:18.365Z,8.61
2023-05-10T20:55:08.759Z,8.54
2023-05-10T20:57:56.843Z,8.46
2023-05-10T21:00:45.591Z,8.40
2023-05-10T21:03:33.701Z,8.37
2023-05-10T21:06:21.737Z,8.33
2023-05-10T21:09:09.997Z,8.30
2023-05-10T21:11:58.448Z,8.24
2023-05-10T21:14:47.923Z,8.20
2023-05-10T21:17:36.328Z,8.16
2023-05-10T21:20:25.433Z,8.09
2023-05-10T21:23:14.214Z,8.03
2023-05-10T21:26:02.131Z,8.00
2023-05-10T21:28:50.885Z,7.95
2023-05-10T21:31:38.995Z,7.92
2023-05-10T21:34:52.683Z,7.88
2023-05-10T21:37:40.703Z,7.84
2023-05-10T21:40:29.470Z,7.83
2023-05-10T21:43:17.657Z,7.82
2023-05-10T21:46:07.611Z,7.82
2023-05-10T21:48:55.854Z,7.79
2023-05-10T21:51:44.294Z,7.79
2023-05-10T21:54:32.434Z,7.78
2023-05-10T21:57:21.712Z,7.78
2023-05-10T22:00:10.427Z,7.76
2023-05-10T22:02:40.803Z,7.73
2023-05-10T22:05:29.443Z,7.70
2023-05-10T22:08:17.384Z,7.66
2023-05-10T22:11:05.931Z,7.61
2023-05-10T22:13:57.295Z,7.58
2023-05-10T22:16:49.632Z,7.53
2023-05-10T22:19:37.944Z,7.52
2023-05-10T22:22:26.335Z,7.50
2023-05-10T22:25:14.547Z,7.47
2023-05-10T22:28:03.491Z,7.45
2023-05-10T22:36:53.533Z,7.34
2023-05-10T22:39:21.911Z,7.31
2023-05-10T22:41:49.937Z,7.28
2023-05-10T22:44:18.456Z,7.25
2023-05-10T22:46:46.791Z,7.20
2023-05-10T22:49:15.070Z,7.15
2023-05-10T22:51:43.807Z,7.10
2023-05-10T22:54:33.132Z,7.06
2023-05-10T22:57:22.792Z,7.00
2023-05-10T23:00:11.420Z,6.92
2023-05-10T23:03:00.342Z,6.79
2023-05-10T23:05:48.926Z,6.69
2023-05-10T23:08:37.064Z,6.62
2023-05-10T23:11:25.658Z,6.58
2023-05-10T23:14:13.964Z,6.53
2023-05-10T23:17:02.414Z,6.46
2023-05-10T23:19:50.767Z,6.40
2023-05-10T23:22:39.417Z,6.37
2023-05-10T23:25:27.789Z,6.34
2023-05-10T23:28:15.965Z,6.33
2023-05-10T23:31:03.960Z,6.32
2023-05-10T23:33:32.122Z,6.33
2023-05-10T23:36:00.527Z,6.32
2023-05-10T23:38:28.889Z,6.32
2023-05-10T23:40:57.574Z,6.32
2023-05-10T23:43:25.957Z,6.31
2023-05-10T23:45:58.010Z,6.30
2023-05-10T23:48:26.355Z,6.31
2023-05-10T23:50:54.807Z,6.30
2023-05-10T23:53:23.064Z,6.29
2023-05-10T23:55:51.297Z,6.29
2023-05-10T23:58:39.586Z,6.30
